University of Illinois Willard Airport
KCMI : rendu visible

Aérodrome :











RETROUVEZ-NOUS SUR...

 
LOGIN :

S'inscrire | Disclaimer

   EN    FR    IT 

 









Légende :    VFR   VFR Marginal   IFR   IFR Intensif   IFR Très Intensif
Visi : 
Plafond : 
>= 8 km
>= 3000ft
5 à 8 km
1000 à 3000 ft
1500m à 5 km
500 à 1000 ft
800 à 1500m
200 à 500 ft
< 800m
< 200 ft
Symboles :   Orages  Brouillard  Fortes neiges  Fortes précipitations  Vent > 20 kt






- Altitude de l'aérodrome : 755 ft
- Code IATA : CMI


KCMI - University of Illinois Willard

DERNIER METAR :
  • 191253Z 11007KT 4SM BR OVC085 01/00 A2973 RMK AO2 SLP072 T00060000

METARs EXPIRÉS :
  • 191153Z 11006KT 5SM BR OVC060 01/00 A2973 RMK AO2 SLP072 T00060000 10006 21017 51003
  • 191053Z AUTO 11007KT 6SM BR OVC060 01/M01 A2973 RMK AO2 SLP072 T00061006
  • 190953Z AUTO 11006KT 6SM BR SCT060 00/M01 A2972 RMK AO2 SLP070 T00001011

TAF KCMI
Valide du 19 à 12h jusqu'au 20 à 12h UTC


191125Z 1912/2012 13004KT P6SM BKN060 OVC080
FM191600 VRB04KT P6SM VCSH FEW007 OVC012
FM192000 30013KT P6SM OVC018
FM200200 30004KT P6SM SCT080



MET'MAP, la Météo Aéronautique d'un coup d'oeil ! - Copyright ORBIFLY Décembre 2007 - Disclaimer

ORBIFLY MET'MAP TEAM :

Programmation & Développement : Alexandra Zaïnal
Conception & Développement : Baudouin d'Aumeries
Co-Programmation & Développement : Marc-Olivier Méhu
Soutien technique & logistique : Manuel Goepfert

Contact : metmap@orbifly.com




SOURCES & CREDITS :

   NOAA       Earth
Advisory